Time;durP1;ratioP1;P1;durP2;ratioP2;P2;SDS_P1;SDS_P2;PMS_P1;PMS_P2;Temp;Humidity;BMP_temperature;BMP_pressure;BME280_temperature;BME280_humidity;BME280_pressure;Samples;Min_cycle;Max_cycle;Signal;HPM_P1;HPM_P2
2022/07/23 00:01:10;;;;;;;;;17.00;14.00;;;;;21.94;100.00;101413.97;4988191;28;45403;-79
2022/07/23 00:03:36;;;;;;;;;11.00;10.67;;;;;21.93;100.00;101410.38;4998633;28;45473;-79
2022/07/23 00:06:01;;;;;;;;;16.00;13.67;;;;;21.91;100.00;101418.16;4987568;28;45626;-78
2022/07/23 00:08:28;;;;;;;;;20.33;15.00;;;;;21.72;100.00;101391.75;4988941;28;46648;-78
2022/07/23 00:10:56;;;;;;;;;22.33;18.33;;;;;21.84;100.00;101420.31;4991628;28;45532;-79
2022/07/23 00:13:22;;;;;;;;;20.00;16.00;;;;;21.83;100.00;101424.25;4966988;28;45530;-78
2022/07/23 00:15:50;;;;;;;;;16.33;15.33;;;;;21.76;100.00;101415.25;4968678;28;46108;-81
2022/07/23 00:18:16;;;;;;;;;18.00;15.00;;;;;21.85;100.00;101433.19;4954534;28;46245;-80
2022/07/23 00:20:42;;;;;;;;;18.33;18.33;;;;;21.87;100.00;101433.75;4976489;28;45460;-78
2022/07/23 00:23:08;;;;;;;;;23.00;17.00;;;;;21.75;100.00;101414.44;4992319;28;45270;-80
2022/07/23 00:25:33;;;;;;;;;16.67;16.67;;;;;21.91;100.00;101439.66;4979340;28;45614;-80
2022/07/23 00:28:00;;;;;;;;;17.67;17.33;;;;;21.86;100.00;101426.50;4967077;28;46774;-80
2022/07/23 00:30:26;;;;;;;;;25.67;24.00;;;;;21.91;100.00;101425.69;5000674;28;45473;-80
2022/07/23 00:33:00;;;;;;;;;28.67;25.33;;;;;21.93;100.00;101427.13;4970445;28;45428;-79
2022/07/23 00:35:30;;;;;;;;;25.33;21.33;;;;;21.89;100.00;101417.59;4987520;28;45432;-77
2022/07/23 00:37:56;;;;;;;;;24.00;20.00;;;;;21.85;100.00;101408.06;4978689;28;47113;-78
2022/07/23 00:40:23;;;;;;;;;23.33;19.00;;;;;22.03;100.00;101429.13;4986739;28;45876;-81
2022/07/23 00:42:49;;;;;;;;;18.33;17.33;;;;;21.83;100.00;101399.94;4972535;28;45552;-80
2022/07/23 00:45:14;;;;;;;;;19.67;18.33;;;;;22.08;100.00;101429.16;5007723;28;45510;-81
2022/07/23 00:47:40;;;;;;;;;25.33;21.33;;;;;21.90;100.00;101396.06;4989013;28;47078;-79
2022/07/23 00:50:08;;;;;;;;;22.00;20.67;;;;;22.07;100.00;101427.47;4969179;28;45798;-76
2022/07/23 00:52:38;;;;;;;;;24.67;19.67;;;;;22.06;100.00;101423.00;4982968;28;45682;-79
2022/07/23 00:55:05;;;;;;;;;21.00;19.33;;;;;22.11;100.00;101427.75;4982316;28;45474;-77
2022/07/23 00:57:30;;;;;;;;;24.33;21.00;;;;;22.02;100.00;101405.09;4982344;28;45481;-78
2022/07/23 00:59:57;;;;;;;;;35.00;32.00;;;;;22.17;100.00;101424.75;4983340;28;45424;-79
2022/07/23 01:02:27;;;;;;;;;37.00;32.00;;;;;22.07;100.00;101405.13;4986706;28;45558;-82
2022/07/23 01:04:54;;;;;;;;;26.33;24.00;;;;;21.90;100.00;101382.13;4978742;28;45381;-82
2022/07/23 01:07:20;;;;;;;;;25.33;23.67;;;;;22.20;100.00;101423.34;4972082;28;46906;-80
2022/07/23 01:09:50;;;;;;;;;27.33;25.67;;;;;22.04;100.00;101400.09;4990627;28;45688;-80
2022/07/23 01:12:16;;;;;;;;;25.67;22.33;;;;;22.22;100.00;101426.72;4984615;28;45669;-81
2022/07/23 01:14:42;;;;;;;;;28.33;25.00;;;;;22.24;100.00;101434.84;4973259;28;45366;-78
2022/07/23 01:17:07;;;;;;;;;25.00;21.00;;;;;22.25;100.00;101417.81;4987699;28;45365;-80
2022/07/23 01:19:33;;;;;;;;;23.67;21.33;;;;;22.20;100.00;101409.38;4965990;28;44749;-80
2022/07/23 01:22:02;;;;;;;;;28.00;24.33;;;;;22.17;100.00;101408.00;4978790;28;45372;-79
2022/07/23 01:24:27;;;;;;;;;27.33;24.00;;;;;22.28;100.00;101420.06;4986888;28;45487;-80
2022/07/23 01:26:56;;;;;;;;;24.00;19.67;;;;;22.18;100.00;101404.06;4987335;28;46205;-83
2022/07/23 01:29:22;;;;;;;;;22.00;20.67;;;;;22.19;100.00;101399.34;4988146;28;44742;-82
2022/07/23 01:31:48;;;;;;;;;24.00;21.33;;;;;22.30;100.00;101422.56;4965757;28;45286;-80
2022/07/23 01:34:14;;;;;;;;;30.33;24.67;;;;;22.20;100.00;101404.66;4983575;28;45459;-79
2022/07/23 01:36:42;;;;;;;;;25.33;20.33;;;;;22.28;100.00;101411.66;4985752;28;46281;-79
2022/07/23 01:39:08;;;;;;;;;26.67;20.33;;;;;22.19;100.00;101399.34;4985800;28;45863;-78
2022/07/23 01:41:43;;;;;;;;;18.67;16.67;;;;;22.28;100.00;101417.25;4991482;28;45481;-83
2022/07/23 01:44:31;;;;;;;;;19.00;16.67;;;;;22.13;100.00;101392.03;4973640;28;45763;-79
2022/07/23 01:47:00;;;;;;;;;21.00;17.33;;;;;22.17;100.00;101395.94;4969841;28;46757;-78
2022/07/23 01:49:25;;;;;;;;;22.00;17.33;;;;;22.13;100.00;101381.69;4985942;28;45452;-79
2022/07/23 01:52:00;;;;;;;;;20.67;15.67;;;;;22.07;100.00;101365.19;4968536;28;45434;-79
2022/07/23 01:54:30;;;;;;;;;14.00;12.67;;;;;22.24;100.00;101393.75;4985697;28;45477;-80
2022/07/23 01:56:56;;;;;;;;;17.67;16.67;;;;;22.18;100.00;101389.25;4971395;28;45466;-79
2022/07/23 01:59:26;;;;;;;;;16.00;15.00;;;;;22.17;100.00;101394.03;4967690;28;45493;-81
2022/07/23 02:01:52;;;;;;;;;22.33;20.33;;;;;22.19;100.00;101399.34;4984396;28;45351;-79
2022/07/23 02:04:19;;;;;;;;;18.00;14.00;;;;;22.14;100.00;101388.13;4983821;28;45439;-79
2022/07/23 02:06:45;;;;;;;;;17.67;17.33;;;;;21.97;100.00;101364.00;4979120;28;45461;-79
2022/07/23 02:09:11;;;;;;;;;27.33;27.00;;;;;22.14;100.00;101388.13;4993014;28;45304;-79
2022/07/23 02:11:37;;;;;;;;;26.67;20.33;;;;;22.01;100.00;101372.69;4977513;28;45385;-78
2022/07/23 02:14:06;;;;;;;;;22.00;15.00;;;;;21.98;100.00;101376.88;4967136;28;45590;-79
2022/07/23 02:16:32;;;;;;;;;19.33;16.00;;;;;22.00;100.00;101380.22;4966648;28;45425;-79
2022/07/23 02:18:57;;;;;;;;;15.67;13.67;;;;;22.08;100.00;101392.00;4964104;28;45450;-77
2022/07/23 02:21:23;;;;;;;;;27.67;23.67;;;;;22.08;100.00;101395.66;4964255;28;45424;-79
2022/07/23 02:23:49;;;;;;;;;18.33;16.00;;;;;22.08;100.00;101397.59;4961957;28;45388;-80
2022/07/23 02:26:14;;;;;;;;;33.67;27.00;;;;;22.06;100.00;101399.81;4945647;28;45773;-80
2022/07/23 02:28:40;;;;;;;;;14.67;14.67;;;;;22.04;100.00;101406.50;4962692;28;45361;-78
2022/07/23 02:31:06;;;;;;;;;16.00;14.33;;;;;21.81;100.00;101363.09;4967113;28;45629;-77
2022/07/23 02:33:32;;;;;;;;;12.00;10.33;;;;;22.05;100.00;101410.13;4964914;28;45463;-77
2022/07/23 02:35:58;;;;;;;;;19.00;16.33;;;;;22.12;100.00;101412.69;4964774;28;45396;-78
2022/07/23 02:38:29;;;;;;;;;18.67;17.00;;;;;22.13;100.00;101414.38;4960206;28;45331;-78
2022/07/23 02:40:54;;;;;;;;;22.67;18.00;;;;;22.11;100.00;101414.66;4973260;28;45345;-78
2022/07/23 02:43:20;;;;;;;;;15.00;15.00;;;;;22.05;100.00;101401.75;4968350;28;45298;-78
2022/07/23 02:45:45;;;;;;;;;16.00;14.67;;;;;22.17;100.00;101421.09;4965297;28;46075;-77
2022/07/23 02:48:12;;;;;;;;;23.33;18.00;;;;;22.12;100.00;101410.72;4952047;28;45353;-78
2022/07/23 02:50:38;;;;;;;;;22.33;18.33;;;;;22.07;100.00;101399.53;4965656;28;45474;-78
2022/07/23 02:53:04;;;;;;;;;19.67;17.33;;;;;22.16;100.00;101408.25;4962206;28;45420;-77
2022/07/23 02:55:29;;;;;;;;;16.67;12.33;;;;;22.11;100.00;101406.28;4965958;28;46364;-77
2022/07/23 02:57:55;;;;;;;;;22.67;18.00;;;;;22.16;100.00;101419.44;4963189;28;45493;-76
2022/07/23 03:00:21;;;;;;;;;17.33;15.33;;;;;22.14;100.00;101416.91;4961851;28;45750;-79
2022/07/23 03:02:46;;;;;;;;;22.67;20.33;;;;;22.11;100.00;101406.28;4975714;28;45441;-79
2022/07/23 03:05:12;;;;;;;;;14.67;13.67;;;;;22.15;100.00;101420.53;4962102;28;45177;-78
2022/07/23 03:07:37;;;;;;;;;14.00;12.33;;;;;22.15;100.00;101420.53;4946342;28;44838;-80
2022/07/23 03:10:03;;;;;;;;;11.33;11.00;;;;;22.19;100.00;101424.47;4976969;28;45452;-77
2022/07/23 03:12:28;;;;;;;;;14.33;14.33;;;;;22.07;100.00;101393.13;4987017;28;45335;-80
2022/07/23 03:14:54;;;;;;;;;15.33;13.67;;;;;22.20;100.00;101421.41;4989724;28;47064;-78
2022/07/23 03:17:20;;;;;;;;;21.67;16.67;;;;;22.11;100.00;101399.84;4995404;28;45352;-79
2022/07/23 03:19:46;;;;;;;;;15.00;13.00;;;;;22.11;100.00;101411.00;4968507;28;45083;-78
2022/07/23 03:22:11;;;;;;;;;10.67;10.00;;;;;21.96;100.00;101387.47;4985686;28;45360;-78
2022/07/23 03:24:55;;;;;;;;;17.33;14.33;;;;;22.12;100.00;101410.72;4967844;28;47475;-78
2022/07/23 03:27:26;;;;;;;;;16.00;13.33;;;;;22.08;100.00;101403.16;4957199;28;45790;-79
2022/07/23 03:29:53;;;;;;;;;20.00;14.33;;;;;22.05;100.00;101407.34;4983211;28;45423;-77
2022/07/23 03:32:22;;;;;;;;;14.67;13.67;;;;;22.06;100.00;101416.56;4989793;28;45317;-79
2022/07/23 03:34:51;;;;;;;;;26.33;17.33;;;;;22.04;100.00;101428.84;4972692;28;46628;-78
2022/07/23 03:37:17;;;;;;;;;14.67;10.33;;;;;21.99;100.00;101423.25;4982338;28;45484;-79
2022/07/23 03:39:43;;;;;;;;;15.67;11.00;;;;;22.01;100.00;101429.38;4975839;28;45715;-79
2022/07/23 03:42:14;;;;;;;;;10.67;8.33;;;;;22.01;100.00;101422.97;4981465;28;45416;-77
2022/07/23 03:44:39;;;;;;;;;19.67;17.67;;;;;21.99;100.00;101422.38;4983874;28;45514;-79
2022/07/23 03:47:06;;;;;;;;;15.00;13.33;;;;;21.99;100.00;101420.44;4986088;28;45825;-78
2022/07/23 03:49:32;;;;;;;;;15.00;13.00;;;;;21.80;100.00;101394.91;4967524;28;45712;-79
2022/07/23 03:51:58;;;;;;;;;15.33;12.67;;;;;21.75;100.00;101388.44;4983351;28;45461;-78
2022/07/23 03:54:24;;;;;;;;;16.33;12.33;;;;;21.80;100.00;101399.66;4985520;28;46447;-78
2022/07/23 03:56:49;;;;;;;;;18.67;14.33;;;;;21.87;100.00;101425.38;5001788;28;45336;-78
2022/07/23 03:59:15;;;;;;;;;16.33;15.00;;;;;21.88;100.00;101420.66;4989418;28;45334;-79
2022/07/23 04:01:40;;;;;;;;;11.33;11.33;;;;;21.78;100.00;101408.31;5009652;28;45279;-79
2022/07/23 04:04:08;;;;;;;;;11.00;11.00;;;;;21.81;100.00;101429.25;4990069;28;46403;-78
2022/07/23 04:06:34;;;;;;;;;15.67;14.00;;;;;21.81;100.00;101429.25;4976957;28;45393;-79
2022/07/23 04:08:59;;;;;;;;;15.00;11.00;;;;;21.79;100.00;101432.31;4990684;28;45429;-79
2022/07/23 04:11:24;;;;;;;;;17.33;13.67;;;;;21.72;100.00;101422.47;4981492;28;45459;-77
2022/07/23 04:13:51;;;;;;;;;17.33;15.00;;;;;21.79;100.00;101442.63;4992881;28;45438;-78
2022/07/23 04:16:17;;;;;;;;;12.00;11.00;;;;;21.76;100.00;101437.59;4967791;28;45445;-79
2022/07/23 04:18:42;;;;;;;;;16.33;15.33;;;;;21.75;100.00;101438.69;4983826;28;45401;-77
2022/07/23 04:21:08;;;;;;;;;17.67;13.00;;;;;21.77;100.00;101433.69;4972374;28;45803;-79
2022/07/23 04:23:33;;;;;;;;;14.67;13.33;;;;;21.77;100.00;101437.31;4966338;28;46102;-79
2022/07/23 04:25:59;;;;;;;;;20.67;14.00;;;;;21.60;100.00;101409.56;4989344;28;45467;-77
2022/07/23 04:28:24;;;;;;;;;11.67;11.67;;;;;21.71;100.00;101423.56;4970774;28;45816;-79
2022/07/23 04:30:50;;;;;;;;;13.33;11.67;;;;;21.60;100.00;101411.50;4966770;28;46229;-79
2022/07/23 04:33:15;;;;;;;;;14.67;11.33;;;;;21.77;100.00;101440.13;4969859;28;46182;-79
2022/07/23 04:35:42;;;;;;;;;15.00;15.00;;;;;21.78;100.00;101438.16;4979049;28;45771;-79
2022/07/23 04:38:07;;;;;;;;;15.00;13.67;;;;;21.81;100.00;101446.00;4976638;28;44816;-79
2022/07/23 04:40:33;;;;;;;;;13.67;12.67;;;;;21.78;100.00;101427.00;4981236;28;45681;-77
2022/07/23 04:42:58;;;;;;;;;14.00;13.00;;;;;21.81;100.00;101441.28;4981354;28;45729;-78
2022/07/23 04:45:24;;;;;;;;;14.00;11.67;;;;;21.80;100.00;101436.78;4981269;28;45363;-76
2022/07/23 04:47:50;;;;;;;;;20.00;13.67;;;;;21.91;100.00;101456.41;4962876;28;45511;-75
2022/07/23 04:50:19;;;;;;;;;17.67;14.33;;;;;21.96;100.00;101448.91;4979475;28;45248;-77
2022/07/23 04:52:45;;;;;;;;;16.67;14.67;;;;;21.86;100.00;101435.72;4984173;28;46100;-79
2022/07/23 04:55:10;;;;;;;;;16.33;16.33;;;;;21.95;100.00;101447.22;4983898;28;45417;-77
2022/07/23 04:57:36;;;;;;;;;13.00;11.67;;;;;21.97;100.00;101447.78;4985409;28;45534;-80
2022/07/23 05:00:03;;;;;;;;;15.33;11.00;;;;;21.97;100.00;101435.78;4983450;28;45368;-80
2022/07/23 05:02:29;;;;;;;;;15.67;13.67;;;;;22.14;100.00;101456.03;4977481;28;45519;-80
2022/07/23 05:04:54;;;;;;;;;13.33;13.33;;;;;22.03;100.00;101431.91;4972324;28;45320;-76
2022/07/23 05:07:20;;;;;;;;;14.67;12.67;;;;;22.17;100.00;101432.28;4981643;28;45663;-76
2022/07/23 05:09:45;;;;;;;;;11.67;11.67;;;;;22.27;100.00;101437.09;4988880;28;45767;-78
2022/07/23 05:12:11;;;;;;;;;13.33;12.33;;;;;22.25;100.00;101422.56;4978584;28;46184;-76
2022/07/23 05:14:37;;;;;;;;;15.67;15.67;;;;;22.47;100.00;101453.16;4996266;28;45370;-79
2022/07/23 05:17:02;;;;;;;;;15.33;12.33;;;;;22.39;100.00;101430.22;4967054;28;45483;-78
2022/07/23 05:19:28;;;;;;;;;12.67;11.67;;;;;22.60;100.00;101446.22;4989128;28;45473;-80
2022/07/23 05:21:53;;;;;;;;;15.00;13.67;;;;;22.67;100.00;101449.63;4982739;28;45121;-77
2022/07/23 05:24:19;;;;;;;;;18.00;15.67;;;;;22.65;100.00;101433.13;4982120;28;45419;-74
2022/07/23 05:26:44;;;;;;;;;12.67;12.67;;;;;22.70;100.00;101421.94;4962434;28;45449;-76
2022/07/23 05:29:11;;;;;;;;;14.00;14.00;;;;;22.85;100.00;101437.94;4980947;28;45555;-77
2022/07/23 05:31:36;;;;;;;;;13.33;13.33;;;;;22.84;100.00;101427.84;4973006;28;47206;-77
2022/07/23 05:34:02;;;;;;;;;14.33;13.33;;;;;22.90;100.00;101423.13;4972466;28;45421;-77
2022/07/23 05:36:27;;;;;;;;;17.00;15.00;;;;;23.11;100.00;101440.00;4959898;28;45404;-78
2022/07/23 05:38:53;;;;;;;;;18.00;15.33;;;;;23.15;100.00;101418.75;4985971;28;45483;-80
2022/07/23 05:41:18;;;;;;;;;13.33;13.33;;;;;23.34;100.00;101433.88;4981117;28;45062;-77
2022/07/23 05:43:44;;;;;;;;;15.67;15.00;;;;;23.36;100.00;101412.03;4991405;28;45463;-75
2022/07/23 05:46:09;;;;;;;;;14.00;13.00;;;;;23.56;100.00;101424.34;4982423;28;45513;-76
2022/07/23 05:48:35;;;;;;;;;17.33;14.67;;;;;23.77;100.00;101442.00;4984280;28;45518;-80
2022/07/23 05:51:00;;;;;;;;;13.00;13.00;;;;;23.78;100.00;101410.91;4984696;28;45479;-79
2022/07/23 05:53:26;;;;;;;;;20.00;16.33;;;;;24.08;100.00;101436.38;4983101;28;45740;-79
2022/07/23 05:55:52;;;;;;;;;18.33;15.33;;;;;24.11;100.00;101411.44;4988362;28;45505;-78
2022/07/23 05:58:17;;;;;;;;;18.67;15.33;;;;;24.52;100.00;101429.25;4982467;28;45740;-79
2022/07/23 06:00:43;;;;;;;;;9.67;9.67;;;;;24.75;100.00;101423.00;4978249;28;46134;-79
2022/07/23 06:03:08;;;;;;;;;18.00;16.33;;;;;25.12;100.00;101432.91;4956250;28;45553;-78
2022/07/23 06:05:34;;;;;;;;;18.67;17.00;;;;;25.34;100.00;101401.59;4982494;28;45754;-76
2022/07/23 06:07:59;;;;;;;;;20.67;16.00;;;;;25.61;100.00;101421.88;4976117;28;44948;-78
2022/07/23 06:10:25;;;;;;;;;15.00;15.00;;;;;25.62;100.00;101420.75;4960407;28;47300;-78
2022/07/23 06:12:50;;;;;;;;;21.67;15.33;;;;;25.57;100.00;101410.41;4975182;28;46073;-76
2022/07/23 06:15:21;;;;;;;;;17.00;14.67;;;;;25.58;100.00;101406.44;4976467;28;45725;-78
2022/07/23 06:17:46;;;;;;;;;20.00;16.33;;;;;25.68;100.00;101430.81;4972883;28;45409;-77
2022/07/23 06:20:12;;;;;;;;;19.33;17.67;;;;;25.66;100.00;101430.25;4986286;28;46567;-77
2022/07/23 06:22:38;;;;;;;;;23.33;19.00;;;;;25.67;100.00;101429.13;4995304;28;45558;-77
2022/07/23 06:25:04;;;;;;;;;24.67;20.67;;;;;25.55;100.00;101424.75;4974747;28;45456;-79
2022/07/23 06:27:30;;;;;;;;;26.67;23.33;;;;;25.45;100.00;101429.59;4981447;28;45457;-76
2022/07/23 06:29:55;;;;;;;;;26.00;22.00;;;;;25.31;100.00;101430.25;4978238;28;46154;-76
2022/07/23 06:32:21;;;;;;;;;29.00;25.00;;;;;25.28;100.00;101441.22;4976015;28;45504;-78
2022/07/23 06:34:47;;;;;;;;;26.00;23.33;;;;;25.25;100.00;101441.78;4980155;28;45978;-74
2022/07/23 06:37:12;;;;;;;;;27.00;24.67;;;;;25.24;100.00;101440.97;4982817;28;45738;-77
2022/07/23 06:39:38;;;;;;;;;26.67;24.00;;;;;25.19;100.00;101443.78;4980468;28;45781;-76
2022/07/23 06:42:04;;;;;;;;;39.00;30.00;;;;;25.11;100.00;101431.22;4984278;28;45478;-76
2022/07/23 06:44:30;;;;;;;;;29.33;24.33;;;;;25.27;100.00;101450.75;4967653;28;45582;-76
2022/07/23 06:46:55;;;;;;;;;28.00;24.33;;;;;25.28;100.00;101452.44;4979558;28;45534;-78
2022/07/23 06:49:21;;;;;;;;;40.67;28.67;;;;;25.19;100.00;101461.50;4980090;28;46116;-77
2022/07/23 06:51:48;;;;;;;;;40.00;33.00;;;;;25.09;100.00;101458.75;4979188;28;45721;-77
2022/07/23 06:54:14;;;;;;;;;32.33;27.67;;;;;24.98;100.00;101460.75;4987842;28;44749;-75
2022/07/23 06:56:43;;;;;;;;;32.00;28.00;;;;;24.80;100.00;101448.22;4977291;28;45570;-78
2022/07/23 06:59:08;;;;;;;;;33.33;30.67;;;;;24.76;100.00;101469.56;4985636;28;47284;-77
2022/07/23 07:01:34;;;;;;;;;46.00;35.67;;;;;24.64;100.00;101458.69;4962864;28;45537;-76
2022/07/23 07:04:02;;;;;;;;;44.00;34.33;;;;;24.69;100.00;101474.66;4983803;28;45092;-75
2022/07/23 07:06:28;;;;;;;;;38.67;31.33;;;;;24.62;100.00;101474.13;4969912;28;45901;-76
2022/07/23 07:08:53;;;;;;;;;47.33;37.00;;;;;24.68;100.00;101478.56;4993270;28;46358;-81
2022/07/23 07:11:19;;;;;;;;;43.33;33.33;;;;;24.70;100.00;101486.69;4999287;28;45542;-82
2022/07/23 07:13:45;;;;;;;;;50.00;36.67;;;;;24.74;100.00;101490.63;4989185;28;45396;-76
2022/07/23 07:16:10;;;;;;;;;46.33;36.67;;;;;24.80;100.00;101492.28;4966690;28;46674;-78
2022/07/23 07:18:36;;;;;;;;;36.00;30.50;;;;;24.77;100.00;101496.47;4986644;28;45336;-78
2022/07/23 07:21:01;;;;;;;;;37.67;30.00;;;;;24.61;100.00;101484.50;4988607;28;44715;-77
2022/07/23 07:23:26;;;;;;;;;45.00;35.00;;;;;24.61;100.00;101478.03;4983968;28;45690;-81
2022/07/23 07:25:52;;;;;;;;;42.00;36.00;;;;;24.78;100.00;101489.75;4980974;28;45910;-80
2022/07/23 07:28:18;;;;;;;;;40.67;32.00;;;;;24.91;100.00;101501.47;4965656;28;46492;-76
2022/07/23 07:30:43;;;;;;;;;34.67;30.67;;;;;24.88;100.00;101496.44;4970554;28;45374;-76
2022/07/23 07:33:08;;;;;;;;;37.67;33.33;;;;;24.96;100.00;101507.09;4980803;28;45795;-77
2022/07/23 07:35:34;;;;;;;;;41.00;32.33;;;;;24.98;100.00;101502.00;4980706;28;46496;-77
2022/07/23 07:38:03;;;;;;;;;36.67;28.00;;;;;25.11;100.00;101515.41;4988389;28;45510;-78
2022/07/23 07:40:29;;;;;;;;;35.67;30.67;;;;;25.25;100.00;101509.19;4990811;28;45683;-79
2022/07/23 07:42:56;;;;;;;;;44.33;37.00;;;;;25.34;100.00;101510.25;4973030;28;45456;-78
2022/07/23 07:45:23;;;;;;;;;45.00;34.67;;;;;25.38;100.00;101503.78;4998105;28;45503;-79
2022/07/23 07:47:49;;;;;;;;;46.00;33.33;;;;;25.43;100.00;101508.50;4992404;28;45816;-78
2022/07/23 07:50:15;;;;;;;;;38.33;35.33;;;;;25.50;100.00;101514.66;4992650;28;45884;-78
2022/07/23 07:52:42;;;;;;;;;39.67;32.33;;;;;25.55;100.00;101514.63;4988082;28;45856;-78
2022/07/23 07:55:10;;;;;;;;;39.67;32.67;;;;;25.64;100.00;101514.00;4974670;28;45718;-81
2022/07/23 07:57:36;;;;;;;;;41.00;35.33;;;;;25.72;100.00;101510.59;4994612;28;45187;-78
2022/07/23 08:00:04;;;;;;;;;33.33;28.00;;;;;25.66;100.00;101486.44;4974048;28;45392;-80
2022/07/23 08:02:39;;;;;;;;;43.67;33.67;;;;;25.83;100.00;101514.97;4988315;28;45333;-82
2022/07/23 08:05:05;;;;;;;;;38.00;34.33;;;;;25.92;100.00;101503.13;4984646;28;45887;-80
2022/07/23 08:07:31;;;;;;;;;43.00;34.33;;;;;26.03;100.00;101510.34;4990861;28;46124;-80
2022/07/23 08:09:57;;;;;;;;;38.67;31.67;;;;;26.17;100.00;101513.28;4976271;28;45866;-78
2022/07/23 08:12:22;;;;;;;;;44.67;32.67;;;;;26.25;100.00;101507.88;4986072;28;45427;-80
2022/07/23 08:14:53;;;;;;;;;39.00;34.00;;;;;26.47;100.00;101511.28;4977750;28;46151;-78
2022/07/23 08:17:19;;;;;;;;;34.00;30.67;;;;;26.55;100.00;101496.59;4984578;28;47330;-78
2022/07/23 08:19:48;;;;;;;;;30.67;28.67;;;;;26.63;100.00;101493.09;4974359;28;45234;-78
2022/07/23 08:22:14;;;;;;;;;37.00;31.00;;;;;26.80;100.00;101503.94;5000241;28;45451;-77
2022/07/23 08:24:40;;;;;;;;;47.67;38.00;;;;;26.91;100.00;101504.63;4997313;28;45436;-81
2022/07/23 08:27:06;;;;;;;;;40.33;34.33;;;;;27.12;100.00;101510.81;4971604;28;45658;-79
2022/07/23 08:29:34;;;;;;;;;39.67;33.67;;;;;27.21;100.00;101523.06;4981553;28;45464;-79
2022/07/23 08:32:00;;;;;;;;;40.00;32.00;;;;;27.21;100.00;101519.44;4989597;28;45327;-79
2022/07/23 08:34:38;;;;;;;;;34.67;31.33;;;;;26.97;100.00;101492.16;4988545;28;44842;-84
2022/07/23 08:37:04;;;;;;;;;36.67;28.67;;;;;27.21;100.00;101520.25;4987907;28;45475;-80
2022/07/23 08:39:29;;;;;;;;;33.33;29.67;;;;;27.18;100.00;101512.41;4985265;28;45392;-80
2022/07/23 08:41:55;;;;;;;;;31.33;28.67;;;;;27.25;100.00;101515.72;4974808;28;45604;-81
2022/07/23 08:44:26;;;;;;;;;32.33;28.00;;;;;27.31;100.00;101513.66;4993381;28;44848;-80
2022/07/23 08:46:52;;;;;;;;;33.00;25.33;;;;;27.53;100.00;101526.31;4982855;28;45497;-80
2022/07/23 08:49:18;;;;;;;;;39.00;31.00;;;;;27.61;100.00;101523.66;4992899;28;45487;-79
2022/07/23 08:52:13;;;;;;;;;29.67;26.67;;;;;27.92;100.00;101522.31;4992147;28;45404;-80
2022/07/23 08:54:39;;;;;;;;;35.67;32.67;;;;;28.50;100.00;101524.69;4971996;28;44888;-80
2022/07/23 08:57:05;;;;;;;;;32.00;30.00;;;;;29.24;100.00;101525.75;4988708;28;46291;-79
2022/07/23 08:59:32;;;;;;;;;50.00;41.67;;;;;29.81;100.00;101522.44;4996619;28;45204;-79
2022/07/23 09:01:58;;;;;;;;;37.33;32.00;;;;;30.51;100.00;101507.91;4960628;28;45663;-80
2022/07/23 09:04:24;;;;;;;;;59.00;44.33;;;;;32.07;100.00;101509.28;4985435;28;45375;-81
2022/07/23 09:06:52;;;;;;;;;56.33;43.67;;;;;33.93;100.00;101511.59;4978666;28;46100;-81
2022/07/23 09:09:20;;;;;;;;;40.33;32.33;;;;;35.79;100.00;101506.72;4978005;28;45436;-78
2022/07/23 09:12:04;;;;;;;;;43.67;35.67;;;;;37.57;91.00;101505.06;4973856;28;45371;-81
2022/07/23 09:14:41;;;;;;;;;37.00;31.00;;;;;39.23;74.63;101508.06;4985663;28;45490;-79
2022/07/23 09:17:23;;;;;;;;;33.33;29.67;;;;;39.85;64.27;101473.16;4992589;28;45358;-81
2022/07/23 09:19:49;;;;;;;;;29.00;26.67;;;;;40.39;60.23;101479.44;4973228;28;45434;-78
2022/07/23 09:22:26;;;;;;;;;40.00;33.33;;;;;40.09;57.20;101476.72;4989129;28;44924;-81
2022/07/23 09:25:14;;;;;;;;;34.67;31.33;;;;;39.89;58.25;101506.44;4985808;28;45281;-81
2022/07/23 09:27:46;;;;;;;;;29.00;27.00;;;;;39.59;57.57;101503.63;4984131;28;45471;-81
2022/07/23 09:30:12;;;;;;;;;40.00;35.00;;;;;39.25;56.01;101488.41;4982950;28;45355;-80
2022/07/23 09:32:39;;;;;;;;;45.00;35.33;;;;;39.15;56.76;101505.09;4989994;28;45400;-79
2022/07/23 09:35:05;;;;;;;;;25.00;23.67;;;;;39.01;55.78;101491.31;4984206;28;46284;-82
2022/07/23 09:37:33;;;;;;;;;36.67;33.33;;;;;38.60;57.00;101490.25;4979804;28;46081;-81
2022/07/23 09:40:15;;;;;;;;;40.67;36.33;;;;;38.26;59.91;101487.22;4975415;28;45422;-81
2022/07/23 09:42:55;;;;;;;;;32.00;28.67;;;;;38.37;59.48;101476.78;4971677;28;45626;-80
2022/07/23 09:45:21;;;;;;;;;26.67;25.00;;;;;38.39;56.37;101491.53;4980850;28;45754;-80
2022/07/23 09:47:46;;;;;;;;;32.67;29.67;;;;;38.03;57.83;101510.91;4976977;28;45727;-75
2022/07/23 09:50:13;;;;;;;;;31.33;28.67;;;;;37.82;57.96;101499.03;4966795;28;45928;-73
2022/07/23 09:52:51;;;;;;;;;34.00;29.00;;;;;37.86;58.57;101495.03;4957013;28;45791;-73
2022/07/23 09:55:18;;;;;;;;;42.00;35.67;;;;;37.70;58.54;101497.97;4954032;28;46080;-74
2022/07/23 09:57:55;;;;;;;;;30.00;28.33;;;;;37.42;59.11;101504.75;4970510;28;45428;-76
2022/07/23 10:00:22;;;;;;;;;52.33;41.00;;;;;37.36;59.98;101489.09;4965876;28;45421;-77
2022/07/23 10:02:51;;;;;;;;;38.00;33.67;;;;;37.38;59.61;101501.00;4971272;28;45761;-72
2022/07/23 10:05:17;;;;;;;;;35.67;33.33;;;;;37.25;58.82;101494.59;4964547;28;46142;-77
2022/07/23 10:07:43;;;;;;;;;38.00;34.33;;;;;37.24;58.14;101481.47;4972128;28;46451;-74
2022/07/23 10:10:11;;;;;;;;;52.00;42.00;;;;;37.28;58.45;101493.00;4975182;28;45771;-78
2022/07/23 10:15:17;;;;;;;;;71.75;61.00;;;;;37.21;57.14;101492.81;4986093;28;45746;-79
2022/07/23 10:17:47;;;;;;;;;76.25;66.50;;;;;36.72;58.15;101456.94;4991877;28;45566;-79
2022/07/23 10:20:47;;;;;;;;;63.00;50.25;;;;;36.91;59.23;101501.94;4975872;28;45424;-80
2022/07/23 10:23:49;;;;;;;;;55.00;45.67;;;;;36.65;58.96;101465.34;4981588;28;45490;-79
2022/07/23 10:26:22;;;;;;;;;52.67;41.67;;;;;36.81;58.90;101485.34;4984941;28;45354;-80
2022/07/23 10:29:10;;;;;;;;;46.00;37.67;;;;;36.68;59.88;101488.31;4992264;28;46110;-79
2022/07/23 10:32:13;;;;;;;;;52.33;44.33;;;;;36.48;60.70;101466.56;4974529;28;45562;-78
2022/07/23 10:34:58;;;;;;;;;58.33;46.33;;;;;36.51;60.73;101492.34;4976367;28;45551;-77
2022/07/23 10:37:42;;;;;;;;;64.75;50.00;;;;;36.33;62.18;101494.75;4950787;28;45294;-79
2022/07/23 10:40:12;;;;;;;;;60.67;49.00;;;;;36.23;62.94;101501.00;4990832;28;46060;-79
2022/07/23 10:42:40;;;;;;;;;59.67;48.33;;;;;36.01;63.87;101491.84;4986301;28;45512;-78
2022/07/23 10:45:33;;;;;;;;;43.33;38.00;;;;;35.89;65.16;101511.91;4974569;28;44768;-78
2022/07/23 10:48:34;;;;;;;;;46.67;38.33;;;;;35.66;68.07;101508.75;4982653;28;45398;-80
2022/07/23 10:51:28;;;;;;;;;;;;;;;;;;;;;
2022/07/23 10:54:01;;;;;;;;;29.33;27.00;;;;;34.91;69.78;101510.09;4991919;28;71813;-85
2022/07/23 10:56:55;;;;;;;;;25.33;24.33;;;;;34.81;74.08;101522.81;4980957;28;45241;-88
2022/07/23 11:00:07;;;;;;;;;;;;;;;;;;;;;
2022/07/23 11:02:45;;;;;;;;;23.00;22.33;;;;;34.80;72.80;101532.56;4997700;28;74850;-88
2022/07/23 11:05:18;;;;;;;;;23.00;19.00;;;;;35.33;69.93;101524.94;5001388;28;45256;-87
2022/07/23 11:08:11;;;;;;;;;21.33;18.67;;;;;35.33;68.25;101533.47;5005300;28;45496;-88
2022/07/23 11:10:51;;;;;;;;;23.00;20.67;;;;;35.19;68.34;101533.81;5002580;28;45340;-89
2022/07/23 11:13:38;;;;;;;;;20.67;20.33;;;;;34.86;69.80;101514.03;4976526;28;45417;-80